aviador You're here:

KFWN Decoded Metar

SUSSEX in NJ, USA
Report Time2018-02-18 20:53:00
UTC Time2018-02-18 21:48:58
Flight Rules vfr VFR
WindVRB at 06 kt
Visibility9999 m
Phenomena:N/A
Clouds:N/A
Expected CloudBase > 4,400 ft AGL from Temp-Dew spread
CeilingNone
Temp05°C (ISA -9)
Dew Point-6°C (45% RH)
AAT0.1°C
QNH1028 hPa
Density Alt-1,119 ft
Elevation436 ft
Report Wrong Elevation
Raw Report
KFWN 182053Z AUTO VRB06KT 10SM CLR 05/M06 A3037 RMK AO2 SLP288
T00501056 53012=

Extra information for KFWN:More info

Metar Taf Metar & Taf Last 4 Metars F.Rules Stats Wind Profile Meteogram Temp Stats Airport Information Weather charts Add Link Nearby VenuesMetar ALERT Operation Metar Decoded Social comments

AIRNAV info for KFWN